createdAt,value
2018-12-19T00:01:26.881Z,121.27
2018-12-19T00:03:53.417Z,119.60
2018-12-19T00:06:19.869Z,123.37
2018-12-19T00:08:46.249Z,120.30
2018-12-19T00:11:12.721Z,120.37
2018-12-19T00:16:31.670Z,120.57
2018-12-19T00:18:58.120Z,118.47
2018-12-19T00:21:25.107Z,122.50
2018-12-19T00:23:52.327Z,121.80
2018-12-19T00:29:11.815Z,127.83
2018-12-19T00:31:38.163Z,127.73
2018-12-19T00:34:04.600Z,120.67
2018-12-19T00:36:31.040Z,123.07
2018-12-19T00:38:58.786Z,127.57
2018-12-19T00:41:25.796Z,128.77
2018-12-19T00:43:52.916Z,118.70
2018-12-19T00:46:19.163Z,116.93
2018-12-19T00:48:45.999Z,117.27
2018-12-19T00:51:12.529Z,119.83
2018-12-19T00:53:38.932Z,116.60
2018-12-19T00:56:05.327Z,115.60
2018-12-19T00:58:31.861Z,124.30
2018-12-19T01:00:58.363Z,117.70
2018-12-19T01:03:25.720Z,120.67
2018-12-19T01:08:45.239Z,116.90
2018-12-19T01:11:11.444Z,121.57
2018-12-19T01:13:37.691Z,116.90
2018-12-19T01:16:04.143Z,116.67
2018-12-19T01:18:30.462Z,121.60
2018-12-19T01:20:57.397Z,117.73
2018-12-19T01:23:23.607Z,118.47
2018-12-19T01:25:49.964Z,116.37
2018-12-19T01:28:16.184Z,118.77
2018-12-19T01:33:34.869Z,115.93
2018-12-19T01:36:07.957Z,114.70
2018-12-19T01:38:34.280Z,118.63
2018-12-19T01:41:00.712Z,117.57
2018-12-19T01:43:26.941Z,116.50
2018-12-19T01:45:53.153Z,120.97
2018-12-19T01:48:19.436Z,116.03
2018-12-19T01:50:46.652Z,117.73
2018-12-19T01:53:12.854Z,115.80
2018-12-19T01:55:39.388Z,113.80
2018-12-19T01:58:06.441Z,114.30
2018-12-19T02:00:33.715Z,114.70
2018-12-19T02:03:00.576Z,113.30
2018-12-19T02:05:27.057Z,118.77
2018-12-19T02:07:53.316Z,116.23
2018-12-19T02:10:19.572Z,114.60
2018-12-19T02:12:45.910Z,116.97
2018-12-19T02:15:12.357Z,117.63
2018-12-19T02:17:39.052Z,115.17
2018-12-19T02:20:05.484Z,119.27
2018-12-19T02:22:31.759Z,120.50
2018-12-19T02:24:58.088Z,117.97
2018-12-19T02:27:24.481Z,121.97
2018-12-19T02:29:50.975Z,119.20
2018-12-19T02:32:17.172Z,119.00
2018-12-19T02:34:43.485Z,120.10
2018-12-19T02:37:10.007Z,115.00
2018-12-19T02:39:36.503Z,115.63
2018-12-19T02:42:03.081Z,117.63
2018-12-19T02:44:29.368Z,116.17
2018-12-19T02:46:55.634Z,117.13
2018-12-19T02:49:21.877Z,117.07
2018-12-19T02:51:48.100Z,115.53
2018-12-19T02:54:14.362Z,116.53
2018-12-19T02:56:40.683Z,115.07
2018-12-19T02:59:06.976Z,119.70
2018-12-19T03:01:33.280Z,114.60
2018-12-19T03:03:59.547Z,115.67
2018-12-19T03:06:25.806Z,114.93
2018-12-19T03:08:52.109Z,115.27
2018-12-19T03:11:19.360Z,116.47
2018-12-19T03:13:47.635Z,120.33
2018-12-19T03:16:13.872Z,117.97
2018-12-19T03:18:40.195Z,123.17
2018-12-19T03:21:07.446Z,115.70
2018-12-19T03:23:33.785Z,118.23
2018-12-19T03:26:00.018Z,116.93
2018-12-19T03:28:26.368Z,116.13
2018-12-19T03:30:53.539Z,121.37
2018-12-19T03:33:19.947Z,114.50
2018-12-19T03:35:46.305Z,117.50
2018-12-19T03:38:14.620Z,122.40
2018-12-19T03:40:40.900Z,115.97
2018-12-19T03:43:07.195Z,119.97
2018-12-19T03:45:33.527Z,117.30
2018-12-19T03:47:59.746Z,117.30
2018-12-19T03:50:26.009Z,113.97
2018-12-19T03:52:52.319Z,116.07
2018-12-19T03:55:18.511Z,116.07
2018-12-19T03:57:44.819Z,119.63
2018-12-19T04:00:11.190Z,117.47
2018-12-19T04:02:37.416Z,117.00
2018-12-19T04:05:04.976Z,114.00
2018-12-19T04:07:31.203Z,115.47
2018-12-19T04:09:58.287Z,115.27
2018-12-19T04:12:24.696Z,114.20
2018-12-19T04:14:50.915Z,116.93
2018-12-19T04:17:17.154Z,114.07
2018-12-19T04:19:43.335Z,113.80
2018-12-19T04:22:09.592Z,118.13
2018-12-19T04:24:35.878Z,116.57
2018-12-19T04:27:02.180Z,118.00
2018-12-19T04:29:28.521Z,119.27
2018-12-19T04:31:55.558Z,116.27
2018-12-19T04:34:21.764Z,118.37
2018-12-19T04:36:48.036Z,119.57
2018-12-19T04:39:14.404Z,113.17
2018-12-19T04:41:41.710Z,115.30
2018-12-19T04:44:08.050Z,113.80
2018-12-19T04:46:34.401Z,116.97
2018-12-19T04:49:00.995Z,117.57
2018-12-19T04:51:28.023Z,112.67
2018-12-19T04:56:47.209Z,120.23
2018-12-19T04:59:13.538Z,117.00
2018-12-19T05:01:39.790Z,119.43
2018-12-19T05:04:06.013Z,125.97
2018-12-19T05:06:32.950Z,122.33
2018-12-19T05:08:59.295Z,123.17
2018-12-19T05:11:25.767Z,116.33
2018-12-19T05:13:52.050Z,115.57
2018-12-19T05:16:18.288Z,113.30
2018-12-19T05:18:44.489Z,113.17
2018-12-19T05:21:10.917Z,115.83
2018-12-19T05:23:37.155Z,113.83
2018-12-19T05:26:04.407Z,114.30
2018-12-19T05:28:30.651Z,114.70
2018-12-19T05:30:56.875Z,112.20
2018-12-19T05:33:23.146Z,113.00
2018-12-19T05:35:49.422Z,118.87
2018-12-19T05:38:15.690Z,117.27
2018-12-19T05:40:42.117Z,116.00
2018-12-19T05:43:08.302Z,114.00
2018-12-19T05:45:35.481Z,114.63
2018-12-19T05:48:01.845Z,121.20
2018-12-19T05:50:28.486Z,116.90
2018-12-19T05:52:55.349Z,122.00
2018-12-19T05:55:21.513Z,116.10
2018-12-19T05:57:47.735Z,113.20
2018-12-19T06:00:14.131Z,115.63
2018-12-19T06:02:40.412Z,114.73
2018-12-19T06:05:06.850Z,113.17
2018-12-19T06:07:33.109Z,113.53
2018-12-19T06:09:59.423Z,111.43
2018-12-19T06:12:25.871Z,110.73
2018-12-19T06:14:52.248Z,113.40
2018-12-19T06:17:18.482Z,128.23
2018-12-19T06:19:44.755Z,113.33
2018-12-19T06:22:11.176Z,114.47
2018-12-19T06:27:30.012Z,111.93
2018-12-19T06:29:56.932Z,113.63
2018-12-19T06:32:23.193Z,109.50
2018-12-19T06:34:49.464Z,114.43
2018-12-19T06:37:16.004Z,112.97
2018-12-19T06:39:42.386Z,114.47
2018-12-19T06:42:08.668Z,111.37
2018-12-19T06:44:38.774Z,114.10
2018-12-19T06:47:04.992Z,112.80
2018-12-19T06:49:31.219Z,113.57
2018-12-19T06:51:57.618Z,114.30
2018-12-19T06:54:23.995Z,110.60
2018-12-19T06:56:50.192Z,110.17
2018-12-19T06:59:16.421Z,112.27
2018-12-19T07:01:42.662Z,112.90
2018-12-19T07:04:09.156Z,112.07
2018-12-19T07:06:36.140Z,113.50
2018-12-19T07:09:05.000Z,110.13
2018-12-19T07:11:31.348Z,110.90
2018-12-19T07:13:57.571Z,113.57
2018-12-19T07:16:23.820Z,111.47
2018-12-19T07:18:50.662Z,114.70
2018-12-19T07:21:17.581Z,110.07
2018-12-19T07:23:44.060Z,112.70
2018-12-19T07:26:10.345Z,112.80
2018-12-19T07:28:36.587Z,114.07
2018-12-19T07:31:02.956Z,113.30
2018-12-19T07:33:29.153Z,114.77
2018-12-19T07:35:55.362Z,114.07
2018-12-19T07:38:21.593Z,111.07
2018-12-19T07:40:47.849Z,112.87
2018-12-19T07:43:14.254Z,112.53
2018-12-19T07:45:40.579Z,111.57
2018-12-19T07:48:06.797Z,116.40
2018-12-19T07:50:33.195Z,116.23
2018-12-19T07:52:59.597Z,117.97
2018-12-19T07:55:28.316Z,114.90
2018-12-19T07:57:54.704Z,110.67
2018-12-19T08:00:27.235Z,116.57
2018-12-19T08:02:49.246Z,117.10
2018-12-19T08:05:15.569Z,116.53
2018-12-19T08:07:41.815Z,117.47
2018-12-19T08:10:08.249Z,118.70
2018-12-19T08:12:36.187Z,116.20
2018-12-19T08:15:03.080Z,114.93
2018-12-19T08:17:29.370Z,113.20
2018-12-19T08:19:55.615Z,113.07
2018-12-19T08:22:21.797Z,112.63
2018-12-19T08:24:48.053Z,114.57
2018-12-19T08:27:14.364Z,116.67
2018-12-19T08:29:40.650Z,113.57
2018-12-19T08:32:06.967Z,114.77
2018-12-19T08:34:33.320Z,120.80
2018-12-19T08:36:59.513Z,113.80
2018-12-19T08:39:25.878Z,114.40
2018-12-19T08:41:52.414Z,112.50
2018-12-19T08:44:18.961Z,113.53
2018-12-19T08:46:45.241Z,114.40
2018-12-19T08:49:11.468Z,117.43
2018-12-19T08:51:37.856Z,117.37
2018-12-19T08:54:04.115Z,126.47
2018-12-19T08:56:30.419Z,118.67
2018-12-19T08:58:56.852Z,113.97
2018-12-19T09:01:23.188Z,117.27
2018-12-19T09:03:49.492Z,125.83
2018-12-19T09:06:15.840Z,115.57
2018-12-19T09:08:42.133Z,114.17
2018-12-19T09:11:08.379Z,113.80
2018-12-19T09:13:34.731Z,118.93
2018-12-19T09:16:01.336Z,116.57
2018-12-19T09:18:27.754Z,122.20
2018-12-19T09:20:53.970Z,118.03
2018-12-19T09:23:20.350Z,120.07
2018-12-19T09:25:46.622Z,116.60
2018-12-19T09:28:12.878Z,121.67
2018-12-19T09:30:39.102Z,122.40
2018-12-19T09:33:05.360Z,121.10
2018-12-19T09:35:31.751Z,122.27
2018-12-19T09:37:59.100Z,116.53
2018-12-19T09:40:25.345Z,117.97
2018-12-19T09:42:51.564Z,117.43
2018-12-19T09:45:17.806Z,117.30
2018-12-19T09:47:44.178Z,118.97
2018-12-19T09:50:10.695Z,115.27
2018-12-19T09:52:36.983Z,117.07
2018-12-19T09:55:04.194Z,119.60
2018-12-19T09:57:30.703Z,117.37
2018-12-19T09:59:57.112Z,115.80
2018-12-19T10:02:23.674Z,119.50
2018-12-19T10:04:49.955Z,116.37
2018-12-19T10:07:16.404Z,116.27
2018-12-19T10:09:42.649Z,113.80
2018-12-19T10:12:08.895Z,117.10
2018-12-19T10:14:35.200Z,114.43
2018-12-19T10:17:01.482Z,113.83
2018-12-19T10:19:27.778Z,113.60
2018-12-19T10:21:53.955Z,114.37
2018-12-19T10:24:22.423Z,115.20
2018-12-19T10:26:48.642Z,114.97
2018-12-19T10:29:14.933Z,119.97
2018-12-19T10:31:41.129Z,115.20
2018-12-19T10:34:07.507Z,115.93
2018-12-19T10:36:36.541Z,117.53
2018-12-19T10:39:06.858Z,117.00
2018-12-19T10:41:33.148Z,112.57
2018-12-19T10:43:59.593Z,115.90
2018-12-19T10:46:25.952Z,115.70
2018-12-19T10:48:52.256Z,115.00
2018-12-19T10:51:18.497Z,116.67
2018-12-19T10:53:44.783Z,118.47
2018-12-19T10:56:11.072Z,114.40
2018-12-19T10:58:37.341Z,117.73
2018-12-19T11:01:04.739Z,114.87
2018-12-19T11:03:31.016Z,118.97
2018-12-19T11:05:57.318Z,123.50
2018-12-19T11:08:23.603Z,114.20
2018-12-19T11:10:49.831Z,117.77
2018-12-19T11:13:16.074Z,122.03
2018-12-19T11:15:42.327Z,118.97
2018-12-19T11:18:08.812Z,115.60
2018-12-19T11:20:35.151Z,113.77
2018-12-19T11:23:01.559Z,117.37
2018-12-19T11:25:27.953Z,118.43
2018-12-19T11:27:54.208Z,116.00
2018-12-19T11:30:20.512Z,116.40
2018-12-19T11:32:46.968Z,117.70
2018-12-19T11:35:13.501Z,117.67
2018-12-19T11:37:39.676Z,123.70
2018-12-19T11:40:07.027Z,115.87
2018-12-19T11:42:33.320Z,118.73
2018-12-19T11:44:59.545Z,116.90
2018-12-19T11:47:25.912Z,115.73
2018-12-19T11:49:52.139Z,115.27
2018-12-19T11:52:18.593Z,116.67
2018-12-19T11:54:44.994Z,117.00
2018-12-19T11:57:11.404Z,116.37
2018-12-19T11:59:37.740Z,117.37
2018-12-19T12:02:04.063Z,117.07
2018-12-19T12:04:30.308Z,112.80
2018-12-19T12:06:56.593Z,116.30
2018-12-19T12:09:22.945Z,116.17
2018-12-19T12:11:49.287Z,115.10
2018-12-19T12:14:15.577Z,114.27
2018-12-19T12:16:41.894Z,113.97
2018-12-19T12:19:08.299Z,115.23
2018-12-19T12:21:34.518Z,118.60
2018-12-19T12:24:00.857Z,114.77
2018-12-19T12:26:27.156Z,113.90
2018-12-19T12:28:53.506Z,116.00
2018-12-19T12:31:19.743Z,114.90
2018-12-19T12:33:46.565Z,117.30
2018-12-19T12:36:13.782Z,115.57
2018-12-19T12:38:39.971Z,115.07
2018-12-19T12:41:06.407Z,113.07
2018-12-19T12:43:32.683Z,116.17
2018-12-19T12:45:59.687Z,114.77
2018-12-19T12:48:25.955Z,113.47
2018-12-19T12:50:52.235Z,113.47
2018-12-19T12:53:18.411Z,115.40
2018-12-19T12:55:44.748Z,113.40
2018-12-19T12:58:11.735Z,113.97
2018-12-19T13:00:38.274Z,117.97
2018-12-19T13:03:04.494Z,116.57
2018-12-19T13:05:30.859Z,115.80
2018-12-19T13:08:01.992Z,113.90
2018-12-19T13:10:28.347Z,115.47
2018-12-19T13:12:54.695Z,118.40
2018-12-19T13:15:27.170Z,114.77
2018-12-19T13:17:53.733Z,120.60
2018-12-19T13:20:19.947Z,115.67
2018-12-19T13:22:46.352Z,119.53
2018-12-19T13:25:12.677Z,112.67
2018-12-19T13:27:38.995Z,119.23
2018-12-19T13:30:06.999Z,117.37
2018-12-19T13:32:34.197Z,120.23
2018-12-19T13:35:00.503Z,118.63
2018-12-19T13:37:27.835Z,115.53
2018-12-19T13:39:54.178Z,116.60
2018-12-19T13:42:20.376Z,114.40
2018-12-19T13:44:46.643Z,116.67
2018-12-19T13:47:13.461Z,115.67
2018-12-19T13:49:39.792Z,116.30
2018-12-19T13:52:06.224Z,117.80
2018-12-19T13:54:33.285Z,114.23
2018-12-19T13:56:59.529Z,116.07
2018-12-19T13:59:25.822Z,116.57
2018-12-19T14:01:52.007Z,118.90
2018-12-19T14:04:18.418Z,119.73
2018-12-19T14:06:44.671Z,117.10
2018-12-19T14:09:11.198Z,122.83
2018-12-19T14:11:37.404Z,118.27
2018-12-19T14:14:03.817Z,114.07
2018-12-19T14:16:30.016Z,118.90
2018-12-19T14:18:56.825Z,118.60
2018-12-19T14:21:23.051Z,120.93
2018-12-19T14:23:49.448Z,115.10
2018-12-19T14:26:15.878Z,118.30
2018-12-19T14:28:42.203Z,119.90
2018-12-19T14:31:08.503Z,115.23
2018-12-19T14:33:35.175Z,122.07
2018-12-19T14:36:02.060Z,115.90
2018-12-19T14:38:28.455Z,115.87
2018-12-19T14:40:54.782Z,119.33
2018-12-19T14:43:20.994Z,119.87
2018-12-19T14:45:47.292Z,120.23
2018-12-19T14:48:13.521Z,122.67
2018-12-19T14:50:39.711Z,114.27
2018-12-19T14:53:05.981Z,117.40
2018-12-19T14:55:32.206Z,116.63
2018-12-19T14:57:58.394Z,120.27
2018-12-19T15:00:24.620Z,115.50
2018-12-19T15:02:50.872Z,118.77
2018-12-19T15:05:17.211Z,113.27
2018-12-19T15:07:43.424Z,118.97
2018-12-19T15:10:09.618Z,115.77
2018-12-19T15:12:35.824Z,120.30
2018-12-19T15:15:03.108Z,114.17
2018-12-19T15:17:29.414Z,118.10
2018-12-19T15:19:55.616Z,120.77
2018-12-19T15:22:21.824Z,114.67
2018-12-19T15:24:48.011Z,116.17
2018-12-19T15:27:14.224Z,116.40
2018-12-19T15:29:40.473Z,124.47
2018-12-19T15:32:06.729Z,115.17
2018-12-19T15:34:32.959Z,118.50
2018-12-19T15:36:59.165Z,115.07
2018-12-19T15:39:25.417Z,118.00
2018-12-19T15:41:51.671Z,115.17
2018-12-19T15:44:17.881Z,115.87
2018-12-19T15:46:44.242Z,115.13
2018-12-19T15:49:10.459Z,118.47
2018-12-19T15:51:36.665Z,116.70
2018-12-19T15:54:02.946Z,114.80
2018-12-19T15:56:29.312Z,128.70
2018-12-19T15:58:55.585Z,127.53
2018-12-19T16:01:21.779Z,120.40
2018-12-19T16:03:48.123Z,118.67
2018-12-19T16:09:06.879Z,123.37
2018-12-19T16:11:33.156Z,125.00
2018-12-19T16:13:59.394Z,122.40
2018-12-19T16:16:25.910Z,116.77
2018-12-19T16:18:52.183Z,125.70
2018-12-19T16:21:18.485Z,126.90
2018-12-19T16:23:44.901Z,134.03
2018-12-19T16:26:11.899Z,121.63
2018-12-19T16:28:38.138Z,125.60
2018-12-19T16:31:04.351Z,118.40
2018-12-19T16:33:30.565Z,118.53
2018-12-19T16:35:56.966Z,121.60
2018-12-19T16:38:23.212Z,124.87
2018-12-19T16:40:49.592Z,124.50
2018-12-19T16:43:15.777Z,119.53
2018-12-19T16:48:34.362Z,119.63
2018-12-19T16:51:00.563Z,124.40
2018-12-19T16:53:26.784Z,127.70
2018-12-19T16:55:52.990Z,129.23
2018-12-19T16:58:19.232Z,129.37
2018-12-19T17:00:45.433Z,124.80
2018-12-19T17:03:11.691Z,127.17
2018-12-19T17:05:37.967Z,122.27
2018-12-19T17:08:04.180Z,122.30
2018-12-19T17:10:30.429Z,123.20
2018-12-19T17:12:56.696Z,121.97
2018-12-19T17:15:22.969Z,124.63
2018-12-19T17:17:49.270Z,124.17
2018-12-19T17:20:15.486Z,120.47
2018-12-19T17:22:41.763Z,122.30
2018-12-19T17:25:08.299Z,125.20
2018-12-19T17:27:34.510Z,126.00
2018-12-19T17:30:01.480Z,123.10
2018-12-19T17:32:27.746Z,123.37
2018-12-19T17:34:55.378Z,122.87
2018-12-19T17:37:21.837Z,124.20
2018-12-19T17:39:48.114Z,124.47
2018-12-19T17:42:14.396Z,123.63
2018-12-19T17:44:40.610Z,124.30
2018-12-19T17:47:06.838Z,124.50
2018-12-19T17:49:33.188Z,125.47
2018-12-19T17:51:59.573Z,125.43
2018-12-19T17:54:25.802Z,128.90
2018-12-19T17:56:52.029Z,123.73
2018-12-19T17:59:18.393Z,129.07
2018-12-19T18:01:44.651Z,125.20
2018-12-19T18:04:10.970Z,126.13
2018-12-19T18:06:37.190Z,128.67
2018-12-19T18:09:05.116Z,130.67
2018-12-19T18:11:31.969Z,126.77
2018-12-19T18:13:58.339Z,129.27
2018-12-19T18:16:24.703Z,127.27
2018-12-19T18:18:51.053Z,132.43
2018-12-19T18:21:17.457Z,129.30
2018-12-19T18:23:43.715Z,132.47
2018-12-19T18:26:09.970Z,128.93
2018-12-19T18:31:31.197Z,129.73
2018-12-19T18:33:57.979Z,131.77
2018-12-19T18:36:24.792Z,130.30
2018-12-19T18:38:51.419Z,133.07
2018-12-19T18:41:18.000Z,136.17
2018-12-19T18:43:45.610Z,131.77
2018-12-19T18:46:12.220Z,131.47
2018-12-19T18:48:38.862Z,128.67
2018-12-19T18:51:06.650Z,129.20
2018-12-19T18:53:33.522Z,131.53
2018-12-19T18:55:59.908Z,129.40
2018-12-19T18:58:26.239Z,125.43
2018-12-19T19:00:52.823Z,127.70
2018-12-19T19:03:19.070Z,128.17
2018-12-19T19:05:45.274Z,130.60
2018-12-19T19:08:11.677Z,129.70
2018-12-19T19:10:38.068Z,132.13
2018-12-19T19:13:04.493Z,126.17
2018-12-19T19:15:30.731Z,128.87
2018-12-19T19:17:57.134Z,129.10
2018-12-19T19:20:23.694Z,127.27
2018-12-19T19:22:50.262Z,129.13
2018-12-19T19:25:16.616Z,127.37
2018-12-19T19:27:43.002Z,127.33
2018-12-19T19:30:09.463Z,128.73
2018-12-19T19:32:35.877Z,129.90
2018-12-19T19:35:02.515Z,135.63
2018-12-19T19:37:28.762Z,133.23
2018-12-19T19:39:55.010Z,128.37
2018-12-19T19:42:22.530Z,127.67
2018-12-19T19:44:48.907Z,130.50
2018-12-19T19:47:15.218Z,128.20
2018-12-19T19:49:41.488Z,125.87
2018-12-19T19:52:08.318Z,129.00
2018-12-19T19:54:34.573Z,128.63
2018-12-19T19:57:00.914Z,130.63
2018-12-19T19:59:27.205Z,124.27
2018-12-19T20:01:53.441Z,126.30
2018-12-19T20:04:19.750Z,124.07
2018-12-19T20:06:45.998Z,129.23
2018-12-19T20:09:12.273Z,126.87
2018-12-19T20:11:38.721Z,133.93
2018-12-19T20:14:05.017Z,126.27
2018-12-19T20:16:33.658Z,128.10
2018-12-19T20:19:00.220Z,128.07
2018-12-19T20:21:26.545Z,129.40
2018-12-19T20:23:52.883Z,130.27
2018-12-19T20:26:19.197Z,131.50
2018-12-19T20:28:45.394Z,131.77
2018-12-19T20:31:11.723Z,134.37
2018-12-19T20:33:38.054Z,130.67
2018-12-19T20:36:04.316Z,130.20
2018-12-19T20:38:30.568Z,130.40
2018-12-19T20:40:56.901Z,129.57
2018-12-19T20:43:23.118Z,129.87
2018-12-19T20:45:49.393Z,129.20
2018-12-19T20:48:15.736Z,128.07
2018-12-19T20:50:42.037Z,132.57
2018-12-19T20:53:08.312Z,128.17
2018-12-19T20:55:34.742Z,131.93
2018-12-19T20:58:01.085Z,125.87
2018-12-19T21:00:27.969Z,130.07
2018-12-19T21:02:54.327Z,124.67
2018-12-19T21:08:13.680Z,127.63
2018-12-19T21:10:40.007Z,127.93
2018-12-19T21:13:06.306Z,130.10
2018-12-19T21:15:32.519Z,128.50
2018-12-19T21:21:00.325Z,128.10
2018-12-19T21:23:26.573Z,128.17
2018-12-19T21:25:52.858Z,124.87
2018-12-19T21:28:19.084Z,128.00
2018-12-19T21:30:45.365Z,125.27
2018-12-19T21:33:14.145Z,126.60
2018-12-19T21:35:40.116Z,133.47
2018-12-19T21:38:06.445Z,127.50
2018-12-19T21:40:33.034Z,127.47
2018-12-19T21:42:59.479Z,132.67
2018-12-19T21:45:28.306Z,130.20
2018-12-19T21:47:54.590Z,130.97
2018-12-19T21:50:20.812Z,130.90
2018-12-19T21:52:47.223Z,130.33
2018-12-19T21:55:13.508Z,132.83
2018-12-19T21:57:39.792Z,129.60
2018-12-19T22:00:09.103Z,133.67
2018-12-19T22:02:35.604Z,131.17
2018-12-19T22:05:01.867Z,131.97
2018-12-19T22:07:28.144Z,127.17
2018-12-19T22:09:54.494Z,133.60
2018-12-19T22:12:20.948Z,135.63
2018-12-19T22:14:47.375Z,128.77
2018-12-19T22:17:20.087Z,132.00
2018-12-19T22:19:46.400Z,131.20
2018-12-19T22:22:14.637Z,125.97
2018-12-19T22:24:40.928Z,133.33
2018-12-19T22:27:07.148Z,128.37
2018-12-19T22:29:33.474Z,132.40
2018-12-19T22:31:59.925Z,130.57
2018-12-19T22:34:26.304Z,129.07
2018-12-19T22:36:52.667Z,132.50
2018-12-19T22:39:19.483Z,133.10
2018-12-19T22:41:45.918Z,134.30
2018-12-19T22:44:12.229Z,131.77
2018-12-19T22:46:38.598Z,131.07
2018-12-19T22:49:04.962Z,132.50
2018-12-19T22:51:31.652Z,129.17
2018-12-19T22:53:58.022Z,132.87
2018-12-19T22:56:24.559Z,133.67
2018-12-19T22:58:50.792Z,131.13
2018-12-19T23:01:23.589Z,131.60
2018-12-19T23:03:56.097Z,130.33
2018-12-19T23:06:22.395Z,134.23
2018-12-19T23:08:48.918Z,138.93
2018-12-19T23:11:15.269Z,143.07
2018-12-19T23:13:41.814Z,133.40
2018-12-19T23:16:08.175Z,133.30
2018-12-19T23:18:35.729Z,135.57
2018-12-19T23:21:02.143Z,132.57
2018-12-19T23:23:28.504Z,136.93
2018-12-19T23:25:54.893Z,133.03
2018-12-19T23:28:21.375Z,135.30
2018-12-19T23:30:50.902Z,129.80
2018-12-19T23:33:17.519Z,134.40
2018-12-19T23:35:44.026Z,132.37
2018-12-19T23:41:03.105Z,132.10
2018-12-19T23:43:29.432Z,132.40
2018-12-19T23:45:55.853Z,130.13
2018-12-19T23:48:22.432Z,134.00
2018-12-19T23:50:48.853Z,129.70
2018-12-19T23:53:15.233Z,135.53
2018-12-19T23:55:41.626Z,129.77
2018-12-19T23:58:08.117Z,129.90
